OIZJ  Jask Airport

Add Bookmark

Jask, Iran

Status
Operational
Latitude Longitude
25° 39' 12" N 57° 47' 57" E
25.653601 57.799301
Local (DST + 5) UTC (GMT + 4)
Oct 2, 2014 01:55 Oct 2, 2014 10:25
Sunrise-Sunset Local UTC
Begin Civil Twilight 05:07 01:37
Sunrise 05:30 02:00
Sunset 05:25 13:55
End Civil Twilight 05:48 14:18

Current Weather

METAR Observed MVFR
OIZJ 021000Z 17012KT 6000 SKC 31/26 Q1009 Thu, Oct 2, 2014 @ 10:00 UTC
(25 Minutes ago)
Marginal Visual Flight Rules
Wind Visibility Clouds Conditions
170° at 12 knots (22 kph) 6000 meters
  • Clear skies
  • No significant weather
Temperatures Readings Precipitation
Current Temp 31°C (88°F)
Dewpoint 26°C (79°F)
Heat Index 39°C (103°F)
Humidity 75%
Altimeter 29.79"Hg
Sea Level Pressure 1009mb
Field Elevation 13.12'
None Recorded

Additional weather within a 185.2km radius of OIZJ

Map ICAO Location
OMFJ 159.8km W (248°)
OIKO 178.5km N (337°)

24 Hour Weather History

Loading
-

24 Hour Weather Graphs

Loading
-

CheckWX.com is intended as a tool to help pilots better visualize weather data. It is not intended as a substitute for an official weather briefing obtained from a Flight Service Station. CheckWX.com does not meet the FAA requirements for an official pre-flight weather briefing. Therefore, it's important that pilots still call and obtain an official FSS pre-flight weather briefing.